Time;durP1;ratioP1;P1;durP2;ratioP2;P2;SDS_P1;SDS_P2;PMS_P1;PMS_P2;Temp;Humidity;BMP_temperature;BMP_pressure;BME280_temperature;BME280_humidity;BME280_pressure;Samples;Min_cycle;Max_cycle;Signal;HPM_P1;HPM_P2
2022/06/18 00:01:48;;;;;;;5.78;1.90;;;;;;;24.64;36.37;100006.69;4992172;28;20054;-61
2022/06/18 00:04:17;;;;;;;2.25;1.80;;;;;;;24.61;36.77;100010.56;4991909;28;20078;-63
2022/06/18 00:06:51;;;;;;;3.20;1.88;;;;;;;24.56;36.84;100008.38;4991961;28;20050;-61
2022/06/18 00:09:22;;;;;;;3.85;1.83;;;;;;;24.57;36.97;100003.84;4974592;28;20054;-61
2022/06/18 00:14:37;;;;;;;2.03;1.83;;;;;;;24.53;36.69;100003.38;4991689;28;20407;-64
2022/06/18 00:17:18;;;;;;;2.42;1.80;;;;;;;24.48;37.31;99999.50;4991609;28;20498;-60
2022/06/18 00:19:46;;;;;;;2.35;1.80;;;;;;;24.52;36.96;99998.97;4991694;28;20050;-62
2022/06/18 00:22:15;;;;;;;2.45;2.25;;;;;;;24.50;37.01;99994.78;4991492;28;20054;-63
2022/06/18 00:24:42;;;;;;;4.53;2.05;;;;;;;24.49;37.05;99996.66;4974333;28;20054;-62
2022/06/18 00:27:11;;;;;;;2.45;2.00;;;;;;;24.49;37.30;99993.97;4991240;28;20491;-61
2022/06/18 00:29:39;;;;;;;7.45;1.95;;;;;;;24.50;37.32;99984.88;4974099;28;20046;-61
2022/06/18 00:32:06;;;;;;;2.78;2.05;;;;;;;24.49;37.57;99990.41;4991590;28;20050;-63
2022/06/18 00:34:33;;;;;;;3.28;2.00;;;;;;;24.47;37.41;99985.22;4991767;28;20104;-60
2022/06/18 00:37:00;;;;;;;3.40;1.70;;;;;;;24.47;37.30;99985.22;4991617;28;20125;-61
2022/06/18 00:39:28;;;;;;;2.17;1.85;;;;;;;24.46;37.74;99983.53;4991306;28;20100;-60
2022/06/18 00:42:07;;;;;;;6.85;2.20;;;;;;;24.40;37.63;99977.00;4991263;28;20084;-61
2022/06/18 00:44:38;;;;;;;2.30;1.73;;;;;;;24.41;38.22;99980.53;4991731;28;20057;-60
2022/06/18 00:47:19;;;;;;;3.08;1.80;;;;;;;24.41;37.54;99975.16;4991920;28;20081;-62
2022/06/18 00:49:51;;;;;;;3.55;2.22;;;;;;;24.38;37.65;99970.97;4991241;28;20097;-60
2022/06/18 00:52:53;;;;;;;3.92;2.10;;;;;;;24.31;37.57;99965.44;4991248;28;20109;-62
2022/06/18 00:55:29;;;;;;;2.95;1.92;;;;;;;24.31;38.10;99962.75;4925090;28;20062;-63
2022/06/18 00:58:01;;;;;;;6.63;2.20;;;;;;;24.28;38.09;99963.06;4973301;28;20085;-62
2022/06/18 01:00:41;;;;;;;6.53;2.13;;;;;;;24.22;38.58;99950.31;4991349;28;20046;-61
2022/06/18 01:03:46;;;;;;;4.45;2.00;;;;;;;24.18;38.56;99955.19;4974143;28;20414;-63
2022/06/18 01:06:17;;;;;;;6.30;2.03;;;;;;;24.19;38.69;99950.66;4911886;29;20052;-61
2022/06/18 01:08:45;;;;;;;4.72;2.40;;;;;;;24.16;38.77;99951.84;4961528;28;20062;-61
2022/06/18 01:11:20;;;;;;;3.75;2.30;;;;;;;24.10;38.96;99960.59;4991333;28;20058;-61
2022/06/18 01:13:47;;;;;;;5.85;2.15;;;;;;;24.08;38.74;99954.53;4991082;28;20053;-62
2022/06/18 01:16:16;;;;;;;3.78;2.35;;;;;;;24.05;39.04;99953.03;4991413;28;20128;-60
2022/06/18 01:18:43;;;;;;;4.32;2.60;;;;;;;24.02;39.22;99955.19;4991034;28;20085;-61
2022/06/18 01:21:22;;;;;;;4.22;2.67;;;;;;;23.95;39.52;99947.84;4991433;28;20121;-60
2022/06/18 01:24:07;;;;;;;3.58;2.20;;;;;;;23.97;39.22;99944.13;4991196;28;20050;-61
2022/06/18 01:26:35;;;;;;;3.78;2.40;;;;;;;23.92;39.26;99945.47;4990853;28;20050;-62
2022/06/18 01:29:01;;;;;;;7.07;2.50;;;;;;;23.89;39.42;99937.75;4990798;28;20046;-61
2022/06/18 01:31:28;;;;;;;3.08;2.17;;;;;;;23.85;39.58;99933.72;4991099;28;20055;-60
2022/06/18 01:33:56;;;;;;;4.47;2.50;;;;;;;23.82;39.56;99937.59;4973624;28;20529;-61
2022/06/18 01:36:23;;;;;;;5.40;2.50;;;;;;;23.80;39.41;99928.88;4973535;28;20058;-62
2022/06/18 01:38:50;;;;;;;4.88;2.58;;;;;;;23.77;39.94;99933.75;4973254;28;20388;-61
2022/06/18 01:44:13;;;;;;;3.75;2.30;;;;;;;23.69;39.87;99924.69;4990554;28;20093;-61
2022/06/18 01:46:45;;;;;;;6.85;2.60;;;;;;;23.67;40.29;99939.31;4973607;28;20062;-60
2022/06/18 01:49:15;;;;;;;4.07;2.45;;;;;;;23.64;40.43;99926.19;4990298;28;20058;-60
2022/06/18 01:51:47;;;;;;;3.40;2.38;;;;;;;23.62;40.74;99926.34;4990816;28;20058;-60
2022/06/18 01:54:26;;;;;;;3.80;2.70;;;;;;;23.59;40.53;99925.88;4973279;28;20065;-62
2022/06/18 01:56:59;;;;;;;5.18;2.58;;;;;;;23.58;40.63;99922.34;4990539;28;20095;-61
2022/06/18 01:59:35;;;;;;;3.40;2.45;;;;;;;23.56;40.93;99919.00;4990495;28;20058;-60
2022/06/18 02:02:05;;;;;;;6.00;2.88;;;;;;;23.56;40.47;99914.44;4973419;28;20058;-61
2022/06/18 02:04:33;;;;;;;3.65;2.50;;;;;;;23.54;40.88;99913.78;4990491;28;20050;-61
2022/06/18 02:07:01;;;;;;;4.03;2.83;;;;;;;23.52;40.59;99918.47;4990367;28;20062;-62
2022/06/18 02:09:36;;;;;;;2.80;2.53;;;;;;;23.50;41.29;99923.19;4975868;28;20061;-63
2022/06/18 02:12:16;;;;;;;3.60;2.55;;;;;;;23.48;41.02;99911.78;4994187;28;20069;-62
2022/06/18 02:14:48;;;;;;;3.35;2.50;;;;;;;23.46;41.19;99913.78;4993853;28;20054;-61
2022/06/18 02:17:19;;;;;;;6.50;2.97;;;;;;;23.45;40.89;99904.03;4994178;28;20058;-62
2022/06/18 02:19:55;;;;;;;8.18;2.92;;;;;;;23.43;41.14;99914.09;4976388;28;20057;-60
2022/06/18 02:22:33;;;;;;;4.93;2.58;;;;;;;23.39;41.44;99905.56;4976643;28;20483;-60
2022/06/18 02:24:59;;;;;;;4.82;2.63;;;;;;;23.39;41.15;99910.94;4976526;28;20054;-60
2022/06/18 02:27:26;;;;;;;4.88;2.45;;;;;;;23.36;41.48;99902.38;4993614;28;20050;-61
2022/06/18 02:29:55;;;;;;;6.78;2.67;;;;;;;23.33;41.20;99905.34;4993618;28;20053;-60
2022/06/18 02:32:33;;;;;;;3.25;2.22;;;;;;;23.26;41.59;99894.44;4993421;28;20056;-61
2022/06/18 02:35:00;;;;;;;6.45;2.40;;;;;;;23.26;41.22;99900.66;4976251;28;20054;-61
2022/06/18 02:37:30;;;;;;;6.50;3.20;;;;;;;23.21;41.77;99894.94;4993618;28;20057;-60
2022/06/18 02:40:00;;;;;;;2.38;2.15;;;;;;;23.17;42.16;99888.22;4975865;28;20050;-61
2022/06/18 02:42:33;;;;;;;3.45;2.58;;;;;;;23.12;42.46;99883.38;4993505;28;20054;-61
2022/06/18 02:45:04;;;;;;;5.32;2.65;;;;;;;23.09;41.83;99891.75;4993599;28;20112;-61
2022/06/18 02:47:30;;;;;;;4.15;3.00;;;;;;;23.07;41.92;99887.56;4976248;28;20388;-61
2022/06/18 02:50:03;;;;;;;4.50;2.55;;;;;;;23.00;42.81;99892.75;4993130;28;20549;-60
2022/06/18 02:52:35;;;;;;;4.47;2.13;;;;;;;22.97;42.52;99888.56;4993741;28;20065;-63
2022/06/18 02:55:16;;;;;;;5.03;2.53;;;;;;;22.94;43.10;99886.19;4993299;28;20046;-60
2022/06/18 02:57:43;;;;;;;3.67;2.83;;;;;;;22.95;42.57;99885.19;4976225;28;20054;-61
2022/06/18 03:00:13;;;;;;;4.75;2.80;;;;;;;22.91;42.76;99895.41;4992903;28;20120;-60
2022/06/18 03:02:40;;;;;;;2.75;2.35;;;;;;;22.89;42.87;99892.06;4993182;28;20450;-60
2022/06/18 03:05:08;;;;;;;7.10;3.15;;;;;;;22.88;42.72;99889.56;4975673;28;20053;-62
2022/06/18 03:07:34;;;;;;;5.07;2.53;;;;;;;22.87;42.75;99896.75;4993323;28;20094;-63
2022/06/18 03:12:46;;;;;;;3.58;2.80;;;;;;;22.87;43.20;99893.22;4992966;28;20574;-60
2022/06/18 03:15:13;;;;;;;3.35;2.70;;;;;;;22.87;43.00;99895.91;4992797;28;20466;-62
2022/06/18 03:17:40;;;;;;;4.43;2.80;;;;;;;22.87;42.90;99893.22;4975678;28;20101;-61
2022/06/18 03:20:13;;;;;;;6.13;2.88;;;;;;;22.87;43.79;99885.16;4991685;28;20101;-61
2022/06/18 03:22:39;;;;;;;5.63;2.67;;;;;;;22.90;43.27;99887.53;4975834;28;20080;-60
2022/06/18 03:25:07;;;;;;;3.55;2.45;;;;;;;22.90;43.22;99892.91;4992705;28;20100;-61
2022/06/18 03:27:33;;;;;;;4.95;2.83;;;;;;;22.90;43.26;99888.38;4975733;28;20054;-61
2022/06/18 03:30:03;;;;;;;3.78;2.90;;;;;;;22.91;43.37;99905.31;4992474;28;20422;-62
2022/06/18 03:32:30;;;;;;;5.50;2.65;;;;;;;22.92;43.26;99901.63;4992592;28;20054;-61
2022/06/18 03:34:57;;;;;;;4.10;2.70;;;;;;;22.93;43.65;99908.69;4975560;28;20047;-60
2022/06/18 03:37:23;;;;;;;3.70;2.83;;;;;;;22.95;43.63;99905.84;4992887;28;20121;-61
2022/06/18 03:39:50;;;;;;;7.00;2.90;;;;;;;22.95;43.69;99898.59;4992539;28;20058;-60
2022/06/18 03:42:16;;;;;;;3.50;2.72;;;;;;;22.97;43.57;99906.50;4992599;28;20043;-60
2022/06/18 03:44:43;;;;;;;7.03;2.70;;;;;;;22.98;44.00;99898.28;4992488;28;20077;-60
2022/06/18 03:47:09;;;;;;;4.43;2.75;;;;;;;23.01;43.89;99911.38;4992134;28;20050;-62
2022/06/18 03:49:36;;;;;;;5.32;2.60;;;;;;;23.04;43.73;99899.47;4992263;28;20077;-61
2022/06/18 03:52:05;;;;;;;6.25;3.30;;;;;;;23.06;44.03;99900.13;4992151;28;20821;-60
2022/06/18 03:54:33;;;;;;;4.93;2.90;;;;;;;23.09;43.97;99899.81;4992514;28;20057;-61
2022/06/18 03:56:59;;;;;;;5.03;2.90;;;;;;;23.12;43.88;99904.00;4992243;28;20506;-61
2022/06/18 03:59:26;;;;;;;8.07;2.92;;;;;;;23.13;43.97;99902.97;4992012;28;20050;-61
2022/06/18 04:01:53;;;;;;;5.03;2.70;;;;;;;23.15;43.92;99906.34;4991966;28;20054;-61
2022/06/18 04:04:19;;;;;;;6.13;2.70;;;;;;;23.17;44.08;99893.59;4992354;28;20398;-61
2022/06/18 04:06:46;;;;;;;4.60;2.88;;;;;;;23.19;44.06;99906.84;4991846;28;20046;-62
2022/06/18 04:09:13;;;;;;;3.10;2.67;;;;;;;23.19;44.32;99907.72;4991726;28;20395;-61
2022/06/18 04:11:39;;;;;;;3.47;2.58;;;;;;;23.22;44.17;99914.59;4991853;28;20061;-61
2022/06/18 04:14:06;;;;;;;7.18;2.53;;;;;;;23.24;44.17;99909.88;4991895;28;20050;-61
2022/06/18 04:16:33;;;;;;;6.38;2.80;;;;;;;23.27;44.23;99918.44;4991732;28;20058;-61
2022/06/18 04:19:00;;;;;;;5.35;2.97;;;;;;;23.31;44.25;99921.63;4991797;28;20057;-61
2022/06/18 04:21:27;;;;;;;7.05;2.85;;;;;;;23.35;44.28;99920.31;4992001;28;20054;-62
2022/06/18 04:23:53;;;;;;;5.50;2.90;;;;;;;23.38;44.17;99911.94;4991714;28;20483;-60
2022/06/18 04:26:20;;;;;;;4.63;2.65;;;;;;;23.43;44.65;99917.66;4991820;28;20054;-62
2022/06/18 04:28:47;;;;;;;6.22;2.80;;;;;;;23.47;44.40;99925.38;4991599;28;20042;-61
2022/06/18 04:31:13;;;;;;;4.65;2.88;;;;;;;23.51;44.50;99927.53;4991761;28;20058;-62
2022/06/18 04:33:41;;;;;;;5.72;3.35;;;;;;;23.55;44.24;99933.44;4991639;28;20526;-60
2022/06/18 04:36:19;;;;;;;6.55;2.70;;;;;;;23.56;44.64;99932.41;4991530;28;20046;-61
2022/06/18 04:38:46;;;;;;;4.05;3.03;;;;;;;23.63;44.23;99927.22;4974011;28;20057;-60
2022/06/18 04:41:12;;;;;;;5.88;3.13;;;;;;;23.66;44.44;99926.88;4991777;28;20506;-63
2022/06/18 04:43:39;;;;;;;4.95;3.30;;;;;;;23.68;44.28;99927.53;4991113;28;20046;-61
2022/06/18 04:46:06;;;;;;;6.00;3.15;;;;;;;23.71;44.45;99920.97;4991100;28;20116;-61
2022/06/18 04:48:32;;;;;;;5.88;3.03;;;;;;;23.74;44.53;99923.34;4990992;28;20042;-60
2022/06/18 04:50:59;;;;;;;3.58;2.80;;;;;;;23.78;44.22;99922.81;4991294;28;20068;-63
2022/06/18 04:53:25;;;;;;;5.90;2.90;;;;;;;23.80;44.53;99918.13;4991142;28;20058;-60
2022/06/18 04:55:52;;;;;;;11.40;3.08;;;;;;;23.85;44.38;99922.16;4991115;28;20078;-60
2022/06/18 04:58:19;;;;;;;5.43;2.90;;;;;;;23.87;44.63;99923.66;4991035;28;20373;-60
2022/06/18 05:00:45;;;;;;;6.65;3.05;;;;;;;23.91;44.37;99921.44;4991207;28;20494;-61
2022/06/18 05:03:17;;;;;;;8.02;3.03;;;;;;;23.92;44.96;99912.41;4991326;28;20054;-61
2022/06/18 05:05:44;;;;;;;4.35;3.03;;;;;;;23.95;44.79;99912.03;4974013;28;20148;-61
2022/06/18 05:08:10;;;;;;;8.00;3.88;;;;;;;23.98;44.74;99909.00;4990932;28;20054;-61
2022/06/18 05:10:37;;;;;;;5.53;3.40;;;;;;;24.01;44.87;99914.06;4991147;28;20501;-59
2022/06/18 05:13:05;;;;;;;5.55;2.97;;;;;;;24.04;44.87;99905.63;4991259;28;20537;-61
2022/06/18 05:15:35;;;;;;;6.28;3.40;;;;;;;24.07;44.81;99912.53;4991064;28;20050;-61
2022/06/18 05:18:01;;;;;;;4.50;2.88;;;;;;;24.11;44.41;99910.34;4990649;28;20414;-60
2022/06/18 05:20:28;;;;;;;5.57;3.30;;;;;;;24.15;44.37;99906.31;4990530;28;20054;-62
2022/06/18 05:22:55;;;;;;;4.38;3.20;;;;;;;24.17;44.84;99912.34;4990800;28;20043;-60
2022/06/18 05:25:21;;;;;;;5.25;3.17;;;;;;;24.20;44.83;99914.69;4990779;28;20116;-60
2022/06/18 05:27:48;;;;;;;5.43;3.50;;;;;;;24.23;44.57;99917.03;4991144;28;20070;-61
2022/06/18 05:30:21;;;;;;;6.63;2.92;;;;;;;24.25;45.15;99922.25;4990717;28;20487;-61
2022/06/18 05:32:48;;;;;;;6.47;3.75;;;;;;;24.29;44.67;99927.09;4991128;28;20050;-61
2022/06/18 05:35:15;;;;;;;5.80;3.65;;;;;;;24.31;44.41;99927.78;4990569;28;20043;-62
2022/06/18 05:37:42;;;;;;;7.65;3.72;;;;;;;24.33;44.74;99931.13;4990691;28;20058;-61
2022/06/18 05:40:10;;;;;;;6.07;3.70;;;;;;;24.36;44.84;99926.41;4990603;28;20104;-61
2022/06/18 05:42:37;;;;;;;6.30;3.88;;;;;;;24.37;44.39;99923.53;4990775;28;20050;-62
2022/06/18 05:45:04;;;;;;;6.18;3.35;;;;;;;24.40;44.88;99923.19;4994717;28;20414;-60
2022/06/18 05:47:32;;;;;;;7.45;3.55;;;;;;;24.41;44.95;99914.09;4994597;28;20050;-61
2022/06/18 05:50:01;;;;;;;5.47;3.75;;;;;;;24.45;45.02;99917.28;4976949;28;20046;-61
2022/06/18 05:52:29;;;;;;;8.82;3.60;;;;;;;24.48;44.67;99922.31;4977657;28;20062;-62
2022/06/18 05:54:56;;;;;;;6.57;3.08;;;;;;;24.50;45.09;99920.28;4994737;28;20069;-61
2022/06/18 05:57:23;;;;;;;4.45;3.33;;;;;;;24.54;45.14;99924.31;4977503;28;20128;-61
2022/06/18 05:59:50;;;;;;;8.27;3.88;;;;;;;24.56;45.04;99916.88;4994330;28;20050;-60
2022/06/18 06:02:19;;;;;;;4.78;3.42;;;;;;;24.59;45.00;99910.31;4994483;28;20082;-61
2022/06/18 06:04:46;;;;;;;6.20;3.80;;;;;;;24.62;45.04;99907.28;4977053;28;20054;-61
2022/06/18 06:07:21;;;;;;;5.10;3.78;;;;;;;24.66;45.11;99911.28;4994498;28;20518;-62
2022/06/18 06:12:38;;;;;;;9.77;3.83;;;;;;;24.74;44.99;99905.00;4994343;28;20129;-61
2022/06/18 06:15:06;;;;;;;4.45;3.70;;;;;;;24.78;45.33;99911.72;4994310;28;20410;-60
2022/06/18 06:17:33;;;;;;;5.63;4.13;;;;;;;24.80;44.86;99904.31;4994351;28;20062;-61
2022/06/18 06:20:25;;;;;;;6.15;4.00;;;;;;;24.80;45.25;99908.84;4976479;28;20061;-61
2022/06/18 06:22:51;;;;;;;7.18;3.88;;;;;;;24.89;45.07;99904.31;4994173;28;20400;-61
2022/06/18 06:25:18;;;;;;;4.72;3.35;;;;;;;24.91;45.06;99900.41;4976584;28;20073;-60
2022/06/18 06:27:44;;;;;;;7.32;4.35;;;;;;;24.95;44.75;99900.88;4994150;28;20046;-61
2022/06/18 06:30:13;;;;;;;6.22;3.63;;;;;;;24.97;45.47;99905.06;4993535;28;20089;-60
2022/06/18 06:32:40;;;;;;;5.60;3.53;;;;;;;25.02;45.01;99907.25;4976419;28;20058;-60
2022/06/18 06:35:07;;;;;;;5.45;3.90;;;;;;;25.06;45.28;99910.41;4993472;28;20507;-62
2022/06/18 06:37:33;;;;;;;5.65;3.67;;;;;;;25.09;45.25;99916.25;4993799;28;20054;-62
2022/06/18 06:40:00;;;;;;;5.13;3.65;;;;;;;25.15;45.85;99919.28;4993274;28;20094;-62
2022/06/18 06:42:27;;;;;;;7.38;4.05;;;;;;;25.17;45.33;99920.78;4993672;28;20046;-60
2022/06/18 06:44:54;;;;;;;8.10;3.83;;;;;;;25.23;45.40;99914.66;4993726;28;20053;-64
2022/06/18 06:47:21;;;;;;;6.80;4.60;;;;;;;25.29;45.28;99925.72;4993794;28;20068;-60
2022/06/18 06:49:48;;;;;;;5.93;3.95;;;;;;;25.31;45.77;99921.81;4975989;28;20053;-62
2022/06/18 06:52:14;;;;;;;10.05;4.05;;;;;;;25.35;45.55;99925.84;4993310;28;20487;-61
2022/06/18 06:54:41;;;;;;;6.07;4.40;;;;;;;25.40;45.54;99924.47;4991920;28;20209;-60
2022/06/18 06:57:23;;;;;;;9.52;4.43;;;;;;;25.45;45.38;99920.19;4993559;28;20116;-60
2022/06/18 06:59:49;;;;;;;5.95;4.15;;;;;;;25.52;45.85;99928.41;4993332;28;20450;-61
2022/06/18 07:02:19;;;;;;;7.32;4.28;;;;;;;25.56;45.63;99931.59;4976034;28;20485;-62
2022/06/18 07:04:46;;;;;;;9.88;4.53;;;;;;;25.60;45.96;99922.97;4975842;28;20138;-60
2022/06/18 07:07:14;;;;;;;5.97;4.43;;;;;;;25.65;45.43;99922.44;4992952;28;20050;-62
2022/06/18 07:09:42;;;;;;;7.72;4.10;;;;;;;25.70;45.60;99927.25;4992865;28;20442;-62
2022/06/18 07:12:09;;;;;;;9.05;4.20;;;;;;;25.76;45.69;99926.53;4993246;28;20046;-62
2022/06/18 07:14:36;;;;;;;6.88;3.97;;;;;;;25.80;45.95;99927.84;4992751;28;20051;-62
2022/06/18 07:17:03;;;;;;;7.00;4.63;;;;;;;25.86;45.96;99932.50;4992933;28;20153;-60
2022/06/18 07:19:30;;;;;;;8.27;4.35;;;;;;;25.91;45.99;99931.97;4992493;28;20121;-64
2022/06/18 07:21:57;;;;;;;6.93;4.35;;;;;;;25.98;45.97;99929.34;4992930;28;20050;-62
2022/06/18 07:24:23;;;;;;;7.47;4.28;;;;;;;26.05;45.70;99935.66;4992467;28;20537;-61
2022/06/18 07:26:50;;;;;;;9.25;4.50;;;;;;;26.11;46.04;99924.16;4993254;28;20091;-61
2022/06/18 07:29:20;;;;;;;9.93;4.47;;;;;;;26.19;45.83;99923.22;4992525;28;20095;-64
2022/06/18 07:31:48;;;;;;;6.25;4.50;;;;;;;26.26;45.40;99920.63;4992714;28;20051;-63
2022/06/18 07:34:14;;;;;;;9.20;4.35;;;;;;;26.32;45.44;99922.59;4992869;28;20454;-61
2022/06/18 07:36:41;;;;;;;6.05;3.83;;;;;;;26.38;45.76;99916.44;4993211;28;20061;-61
2022/06/18 07:39:08;;;;;;;9.68;4.10;;;;;;;26.47;45.49;99929.84;4992433;28;20385;-61
2022/06/18 07:41:39;;;;;;;6.85;4.20;;;;;;;26.52;45.81;99936.34;4992566;28;20491;-61
2022/06/18 07:44:06;;;;;;;6.10;4.28;;;;;;;26.62;45.37;99925.25;4992661;28;20073;-60
2022/06/18 07:46:32;;;;;;;6.72;3.65;;;;;;;26.68;45.45;99929.03;4992179;28;20050;-62
2022/06/18 07:48:59;;;;;;;9.55;4.03;;;;;;;26.77;45.56;99925.19;4992103;28;20050;-61
2022/06/18 07:51:26;;;;;;;7.35;4.15;;;;;;;26.86;45.47;99925.94;4992582;28;20093;-61
2022/06/18 07:53:54;;;;;;;4.97;4.00;;;;;;;26.95;44.99;99920.44;4992470;28;20077;-62
2022/06/18 07:56:20;;;;;;;10.95;4.18;;;;;;;27.01;45.10;99920.50;4992267;28;20054;-60
2022/06/18 07:58:47;;;;;;;11.55;4.38;;;;;;;27.11;44.77;99922.91;4991952;28;20490;-64
2022/06/18 08:01:13;;;;;;;7.30;3.72;;;;;;;27.19;44.74;99921.94;4992101;28;20487;-61
2022/06/18 08:03:40;;;;;;;8.77;4.80;;;;;;;27.26;44.68;99922.84;4975158;28;20089;-62
2022/06/18 08:06:08;;;;;;;8.00;3.83;;;;;;;27.33;44.57;99920.19;4992092;28;20089;-61
2022/06/18 08:08:35;;;;;;;8.25;3.95;;;;;;;27.40;44.72;99918.38;4991905;28;20050;-60
2022/06/18 08:11:05;;;;;;;7.38;3.75;;;;;;;27.48;44.09;99928.22;4974667;28;20112;-60
2022/06/18 08:13:32;;;;;;;7.15;3.50;;;;;;;27.56;44.46;99932.66;4992074;28;20054;-61
2022/06/18 08:15:59;;;;;;;8.05;3.92;;;;;;;27.64;44.40;99928.97;4991727;28;20491;-60
2022/06/18 08:18:26;;;;;;;8.40;3.85;;;;;;;27.69;43.87;99919.25;4974794;28;20054;-61
2022/06/18 08:21:13;;;;;;;6.60;3.80;;;;;;;27.74;43.98;99920.53;4991744;28;20714;-62
2022/06/18 08:23:40;;;;;;;12.52;3.83;;;;;;;27.86;44.37;99932.47;4991941;28;20133;-64
2022/06/18 08:26:07;;;;;;;7.22;3.83;;;;;;;27.92;44.07;99930.88;4991721;28;20054;-61
2022/06/18 08:28:35;;;;;;;6.75;3.70;;;;;;;28.01;44.23;99928.81;4974330;28;20061;-62
2022/06/18 08:31:04;;;;;;;5.50;3.35;;;;;;;28.08;44.28;99924.28;4974421;28;20055;-63
2022/06/18 08:33:31;;;;;;;5.97;3.53;;;;;;;28.18;44.76;99930.16;4991548;28;20141;-63
2022/06/18 08:36:01;;;;;;;6.15;3.58;;;;;;;28.28;43.85;99937.13;4974094;28;20054;-63
2022/06/18 08:38:29;;;;;;;7.97;3.38;;;;;;;28.37;44.24;99927.81;4974164;28;20050;-64
2022/06/18 08:41:07;;;;;;;8.07;3.78;;;;;;;28.45;44.11;99927.63;4991632;28;20145;-61
2022/06/18 08:43:56;;;;;;;6.05;3.90;;;;;;;28.53;43.25;99926.63;4991964;28;20382;-62
2022/06/18 08:46:41;;;;;;;5.22;3.85;;;;;;;28.63;43.73;99928.13;4991507;28;20050;-61
2022/06/18 08:49:44;;;;;;;5.72;3.65;;;;;;;28.70;43.48;99927.09;4973890;28;20050;-61
2022/06/18 08:52:32;;;;;;;6.72;3.33;;;;;;;28.79;43.55;99935.88;4991637;28;20105;-60
2022/06/18 08:55:24;;;;;;;5.53;3.40;;;;;;;28.87;43.70;99933.00;4991316;28;20109;-62
2022/06/18 08:58:03;;;;;;;7.60;3.70;;;;;;;28.97;43.14;99935.31;4974285;28;20062;-63
2022/06/18 09:00:57;;;;;;;10.85;4.18;;;;;;;29.04;42.40;99931.81;4974007;28;20066;-61
2022/06/18 09:03:52;;;;;;;7.53;3.42;;;;;;;29.11;43.17;99932.63;4974700;28;20078;-61
2022/06/18 09:06:34;;;;;;;6.82;3.20;;;;;;;29.20;42.99;99928.72;4991470;28;20435;-60
2022/06/18 09:09:09;;;;;;;5.28;3.45;;;;;;;29.31;42.89;99927.25;4991100;28;20054;-63
2022/06/18 09:11:35;;;;;;;8.45;3.47;;;;;;;29.39;42.81;99931.63;4991291;28;20060;-63
2022/06/18 09:14:09;;;;;;;8.25;3.85;;;;;;;29.48;42.90;99929.53;4991183;28;20054;-61
2022/06/18 09:17:12;;;;;;;8.32;3.38;;;;;;;29.52;42.42;99928.09;4991304;28;20058;-61
2022/06/18 09:19:42;;;;;;;6.10;3.60;;;;;;;29.64;41.78;99926.44;4994533;28;20050;-62
2022/06/18 09:22:15;;;;;;;7.95;3.50;;;;;;;29.73;41.50;99929.78;4977957;28;20054;-63
2022/06/18 09:24:45;;;;;;;6.93;3.42;;;;;;;29.82;42.03;99933.09;4977831;28;20137;-61
2022/06/18 09:27:30;;;;;;;5.88;3.78;;;;;;;29.87;41.50;99932.47;4977719;28;20047;-63
2022/06/18 09:30:02;;;;;;;6.40;3.75;;;;;;;29.98;41.27;99931.81;4977583;28;20176;-61
2022/06/18 09:32:32;;;;;;;6.30;3.88;;;;;;;30.04;40.87;99935.56;4994969;28;20137;-64
2022/06/18 09:35:04;;;;;;;6.43;3.53;;;;;;;30.12;41.29;99929.94;4994758;28;20073;-62
2022/06/18 09:37:53;;;;;;;8.55;3.53;;;;;;;30.16;40.77;99933.06;4995013;28;20046;-63
2022/06/18 09:40:27;;;;;;;9.25;3.75;;;;;;;30.27;40.44;99935.09;4994629;28;20054;-61
2022/06/18 09:43:07;;;;;;;8.25;3.50;;;;;;;30.31;41.55;99924.63;4977637;28;20050;-61
2022/06/18 09:45:43;;;;;;;6.85;3.90;;;;;;;30.40;40.96;99914.38;4977548;28;20059;-62
2022/06/18 09:48:10;;;;;;;7.45;3.78;;;;;;;30.50;40.49;99924.81;4994704;28;20057;-61
2022/06/18 09:50:50;;;;;;;9.48;3.67;;;;;;;30.55;41.04;99925.81;4994596;28;20058;-61
2022/06/18 09:53:39;;;;;;;11.25;3.85;;;;;;;30.62;40.60;99925.78;4977432;28;20059;-61
2022/06/18 09:56:11;;;;;;;9.80;4.40;;;;;;;30.73;40.47;99924.31;4994804;28;20105;-61
2022/06/18 09:58:46;;;;;;;11.50;4.63;;;;;;;30.81;40.88;99912.34;4977473;28;20050;-64
2022/06/18 10:01:17;;;;;;;5.32;3.42;;;;;;;30.90;41.12;99915.59;4977235;28;20138;-61
2022/06/18 10:09:43;;;;;;;7.90;3.05;;;;;;;31.21;40.01;99903.91;4994056;28;20054;-61
2022/06/18 10:12:21;;;;;;;;;;;;;;;31.26;40.46;99900.53;4994865;28;20062;-60
2022/06/18 10:14:55;;;;;;;5.32;3.00;;;;;;;31.40;39.14;99905.88;4994200;28;19922;-64
2022/06/18 10:17:53;;;;;;;8.27;4.10;;;;;;;31.44;39.50;99912.53;4994187;28;20570;-63
2022/06/18 10:20:30;;;;;;;6.97;3.70;;;;;;;31.53;38.71;99905.75;4993891;28;20112;-63
2022/06/18 10:23:06;;;;;;;5.65;3.45;;;;;;;31.61;38.62;99910.06;4993961;28;20058;-62
2022/06/18 10:25:44;;;;;;;5.72;3.13;;;;;;;31.70;39.19;99910.63;4976896;28;20104;-64
2022/06/18 10:28:29;;;;;;;8.45;3.20;;;;;;;31.78;38.55;99907.63;4993660;28;20050;-61
2022/06/18 10:31:05;;;;;;;6.63;2.97;;;;;;;31.85;37.82;99904.84;4993645;28;20109;-61
2022/06/18 10:33:43;;;;;;;7.32;3.72;;;;;;;31.95;38.46;99910.63;4994079;28;20046;-61
2022/06/18 10:36:25;;;;;;;5.03;2.65;;;;;;;32.03;39.03;99906.75;4993683;28;20057;-61
2022/06/18 10:38:57;;;;;;;7.25;3.28;;;;;;;32.18;39.00;99909.09;4976256;28;20506;-61
2022/06/18 10:41:39;;;;;;;;;;;;;;;32.32;39.08;99914.38;4994020;28;20058;-61
2022/06/18 10:44:29;;;;;;;6.55;2.83;;;;;;;32.57;38.18;99911.59;4994100;28;19976;-63
2022/06/18 10:47:10;;;;;;;7.90;2.75;;;;;;;32.81;38.02;99906.22;4976057;28;20050;-62
2022/06/18 10:49:36;;;;;;;5.65;2.97;;;;;;;33.10;38.00;99905.59;4993947;28;20134;-63
2022/06/18 10:52:04;;;;;;;9.82;3.28;;;;;;;33.40;37.52;99896.50;4993325;28;20046;-62
2022/06/18 10:54:33;;;;;;;8.82;2.65;;;;;;;33.74;36.12;99890.47;4993705;28;20066;-62
2022/06/18 10:57:04;;;;;;;5.72;2.72;;;;;;;34.09;35.93;99903.31;4976450;28;20050;-61
2022/06/18 10:59:39;;;;;;;8.75;3.42;;;;;;;34.46;35.84;99895.81;4975721;28;20108;-61
2022/06/18 11:02:19;;;;;;;12.88;3.45;;;;;;;34.82;35.26;99882.84;4993715;28;20054;-61
2022/06/18 11:05:02;;;;;;;5.55;2.80;;;;;;;35.20;35.39;99884.03;4976333;28;20076;-63
2022/06/18 11:07:31;;;;;;;6.93;3.00;;;;;;;35.55;34.01;99879.38;4976085;28;20050;-61
2022/06/18 11:10:03;;;;;;;5.43;2.60;;;;;;;35.85;33.38;99880.09;4975489;28;20560;-62
2022/06/18 11:12:38;;;;;;;7.22;2.90;;;;;;;36.10;32.43;99884.25;4993279;28;20096;-63
2022/06/18 11:15:26;;;;;;;9.57;2.85;;;;;;;36.34;33.71;99875.75;4976073;28;20502;-61
2022/06/18 11:17:53;;;;;;;5.00;2.88;;;;;;;36.64;32.32;99872.53;4975931;28;20054;-62
2022/06/18 11:20:23;;;;;;;8.05;2.53;;;;;;;36.87;32.46;99872.47;4993028;28;20054;-63
2022/06/18 11:23:16;;;;;;;8.40;3.08;;;;;;;37.05;32.46;99878.63;4975650;28;20047;-62
2022/06/18 11:25:51;;;;;;;8.82;2.72;;;;;;;37.33;31.37;99877.50;4976032;28;20050;-62
2022/06/18 11:28:32;;;;;;;5.97;2.85;;;;;;;37.54;30.70;99872.97;4992790;28;20054;-62
2022/06/18 11:31:01;;;;;;;5.88;3.22;;;;;;;37.75;30.44;99873.09;4975303;28;20494;-64
2022/06/18 11:33:40;;;;;;;10.18;2.65;;;;;;;37.87;30.11;99866.56;4992684;28;20153;-61
2022/06/18 11:36:15;;;;;;;6.55;2.72;;;;;;;38.06;29.68;99865.00;4992795;28;20117;-62
2022/06/18 11:38:54;;;;;;;6.05;2.78;;;;;;;38.21;31.06;99857.94;4975369;28;20089;-63
2022/06/18 11:41:33;;;;;;;9.55;3.53;;;;;;;38.41;29.73;99848.91;4991845;28;20165;-61
2022/06/18 11:44:20;;;;;;;6.10;2.53;;;;;;;38.61;28.88;99854.72;4992545;28;20507;-62
2022/06/18 11:47:02;;;;;;;7.68;2.97;;;;;;;38.78;28.85;99841.53;4992449;28;20069;-63
2022/06/18 11:49:31;;;;;;;;;;;;;;;38.93;31.05;99850.88;4992710;28;20050;-61
2022/06/18 11:52:10;;;;;;;6.93;2.80;;;;;;;39.14;28.62;99845.41;4992427;28;19929;-62
2022/06/18 11:55:11;;;;;;;8.18;2.85;;;;;;;39.23;29.81;99849.22;4992315;28;20108;-63
2022/06/18 11:57:45;;;;;;;6.53;2.60;;;;;;;39.37;28.06;99838.47;4978941;28;20097;-63
2022/06/18 12:00:26;;;;;;;6.78;2.35;;;;;;;39.46;28.57;99841.50;4992368;28;20054;-62
2022/06/18 12:02:55;;;;;;;6.93;2.40;;;;;;;39.59;28.07;99840.91;4992115;28;20062;-62
2022/06/18 12:05:42;;;;;;;7.18;2.92;;;;;;;39.69;27.47;99836.47;4992120;28;20434;-62
2022/06/18 12:08:16;;;;;;;6.35;2.90;;;;;;;39.88;27.26;99829.22;4974653;28;20062;-63
2022/06/18 12:10:54;;;;;;;6.57;2.60;;;;;;;40.02;26.68;99825.84;4992261;28;20462;-63
2022/06/18 12:13:43;;;;;;;6.90;2.42;;;;;;;40.13;28.32;99823.88;4992076;28;20050;-62